createdAt,value
2019-04-06T00:01:13.133Z,19.67
2019-04-06T00:03:41.106Z,19.00
2019-04-06T00:06:09.000Z,19.50
2019-04-06T00:08:36.740Z,19.13
2019-04-06T00:11:05.025Z,18.87
2019-04-06T00:13:32.763Z,19.80
2019-04-06T00:16:00.656Z,19.40
2019-04-06T00:18:28.386Z,19.00
2019-04-06T00:20:56.141Z,18.20
2019-04-06T00:23:24.006Z,19.07
2019-04-06T00:25:51.696Z,19.87
2019-04-06T00:28:19.440Z,18.60
2019-04-06T00:31:02.985Z,18.97
2019-04-06T00:33:31.100Z,19.77
2019-04-06T00:35:58.982Z,20.57
2019-04-06T00:38:26.736Z,18.97
2019-04-06T00:40:54.626Z,19.40
2019-04-06T00:43:22.584Z,19.73
2019-04-06T00:45:50.309Z,19.87
2019-04-06T00:48:18.092Z,20.13
2019-04-06T00:50:45.866Z,19.73
2019-04-06T00:53:13.739Z,20.53
2019-04-06T00:55:41.542Z,19.53
2019-04-06T00:58:09.290Z,20.37
2019-04-06T01:00:37.139Z,19.33
2019-04-06T01:03:04.947Z,20.73
2019-04-06T01:05:32.782Z,20.47
2019-04-06T01:08:00.684Z,20.53
2019-04-06T01:10:28.424Z,21.37
2019-04-06T01:12:56.281Z,21.73
2019-04-06T01:15:24.060Z,21.23
2019-04-06T01:17:51.917Z,21.37
2019-04-06T01:20:19.776Z,22.63
2019-04-06T01:22:47.653Z,21.13
2019-04-06T01:25:15.525Z,23.13
2019-04-06T01:27:43.275Z,24.37
2019-04-06T01:30:11.028Z,22.63
2019-04-06T01:32:38.923Z,22.50
2019-04-06T01:35:06.704Z,23.87
2019-04-06T01:37:34.567Z,23.07
2019-04-06T01:40:02.293Z,22.47
2019-04-06T01:42:30.124Z,21.93
2019-04-06T01:44:57.858Z,23.67
2019-04-06T01:47:25.768Z,24.20
2019-04-06T01:49:53.706Z,24.23
2019-04-06T01:52:21.587Z,23.97
2019-04-06T01:54:49.418Z,24.53
2019-04-06T01:57:17.298Z,25.37
2019-04-06T01:59:45.102Z,24.50
2019-04-06T02:02:26.936Z,24.30
2019-04-06T02:04:54.660Z,25.90
2019-04-06T02:07:22.529Z,24.23
2019-04-06T02:09:50.247Z,25.33
2019-04-06T02:12:18.022Z,26.27
2019-04-06T02:14:45.977Z,23.80
2019-04-06T02:17:13.743Z,25.03
2019-04-06T02:19:41.525Z,24.53
2019-04-06T02:22:09.251Z,27.07
2019-04-06T02:24:37.078Z,25.97
2019-04-06T02:27:04.771Z,26.80
2019-04-06T02:29:32.746Z,25.93
2019-04-06T02:32:09.345Z,25.23
2019-04-06T02:34:56.044Z,26.60
2019-04-06T02:37:40.029Z,26.07
2019-04-06T02:40:25.200Z,26.80
2019-04-06T02:43:05.745Z,26.43
2019-04-06T02:45:33.775Z,27.20
2019-04-06T02:48:01.587Z,27.73
2019-04-06T02:50:29.390Z,26.93
2019-04-06T02:52:57.189Z,25.30
2019-04-06T02:55:25.122Z,27.67
2019-04-06T02:57:52.926Z,29.07
2019-04-06T03:00:20.661Z,26.73
2019-04-06T03:02:48.528Z,26.40
2019-04-06T03:05:16.491Z,25.43
2019-04-06T03:07:44.302Z,25.73
2019-04-06T03:10:12.317Z,24.50
2019-04-06T03:12:40.449Z,23.93
2019-04-06T03:15:08.358Z,25.07
2019-04-06T03:17:36.096Z,24.93
2019-04-06T03:20:03.984Z,24.10
2019-04-06T03:22:31.893Z,25.27
2019-04-06T03:24:59.716Z,24.40
2019-04-06T03:27:27.707Z,24.80
2019-04-06T03:29:58.248Z,25.87
2019-04-06T03:32:25.025Z,25.33
2019-04-06T03:34:52.745Z,25.03
2019-04-06T03:37:20.621Z,27.60
2019-04-06T03:39:48.508Z,28.07
2019-04-06T03:42:16.487Z,26.23
2019-04-06T03:44:44.326Z,25.37
2019-04-06T03:47:12.206Z,32.53
2019-04-06T03:49:40.094Z,29.73
2019-04-06T03:52:07.969Z,32.50
2019-04-06T03:54:35.687Z,28.13
2019-04-06T03:57:14.515Z,29.47
2019-04-06T03:59:33.067Z,29.77
2019-04-06T04:02:00.962Z,28.17
2019-04-06T04:04:28.693Z,28.40
2019-04-06T04:06:56.501Z,27.87
2019-04-06T04:09:24.299Z,29.57
2019-04-06T04:11:52.148Z,29.23
2019-04-06T04:14:19.878Z,27.70
2019-04-06T04:16:47.634Z,28.97
2019-04-06T04:19:15.480Z,29.93
2019-04-06T04:21:43.232Z,33.20
2019-04-06T04:24:11.113Z,30.53
2019-04-06T04:26:38.870Z,31.87
2019-04-06T04:29:06.583Z,33.77
2019-04-06T04:31:34.332Z,31.87
2019-04-06T04:34:02.438Z,36.00
2019-04-06T04:36:30.307Z,33.37
2019-04-06T04:38:58.394Z,46.10
2019-04-06T04:41:26.364Z,44.70
2019-04-06T04:43:54.327Z,36.80
2019-04-06T04:46:22.088Z,35.63
2019-04-06T04:48:50.047Z,40.43
2019-04-06T04:51:17.854Z,71.20
2019-04-06T04:53:45.783Z,54.03
2019-04-06T04:56:13.566Z,60.83
2019-04-06T04:58:41.288Z,48.20
2019-04-06T05:01:09.066Z,49.47
2019-04-06T05:03:36.807Z,38.67
2019-04-06T05:06:04.843Z,40.10
2019-04-06T05:08:32.806Z,39.13
2019-04-06T05:11:00.880Z,48.80
2019-04-06T05:13:28.646Z,42.07
2019-04-06T05:15:56.403Z,42.80
2019-04-06T05:18:24.298Z,36.77
2019-04-06T05:20:52.117Z,32.00
2019-04-06T05:23:19.879Z,34.43
2019-04-06T05:25:47.661Z,32.70
2019-04-06T05:28:15.567Z,32.23
2019-04-06T05:30:43.452Z,34.80
2019-04-06T05:33:11.405Z,34.97
2019-04-06T05:35:39.212Z,33.17
2019-04-06T05:38:06.962Z,34.00
2019-04-06T05:40:34.787Z,31.70
2019-04-06T05:43:02.524Z,30.77
2019-04-06T05:45:30.378Z,32.30
2019-04-06T05:47:58.300Z,36.47
2019-04-06T05:50:26.035Z,37.93
2019-04-06T05:52:53.753Z,35.90
2019-04-06T05:55:21.873Z,35.83
2019-04-06T05:58:02.358Z,31.23
2019-04-06T06:00:20.718Z,31.37
2019-04-06T06:02:48.526Z,30.67
2019-04-06T06:05:16.341Z,33.10
2019-04-06T06:07:44.229Z,33.27
2019-04-06T06:10:12.098Z,34.97
2019-04-06T06:12:40.127Z,34.07
2019-04-06T06:15:07.903Z,33.97
2019-04-06T06:17:35.780Z,31.47
2019-04-06T06:20:03.646Z,33.83
2019-04-06T06:22:31.400Z,33.90
2019-04-06T06:24:59.362Z,33.30
2019-04-06T06:27:27.329Z,32.13
2019-04-06T06:29:55.065Z,35.23
2019-04-06T06:32:22.927Z,33.80
2019-04-06T06:34:50.656Z,34.20
2019-04-06T06:37:18.407Z,32.13
2019-04-06T06:39:46.273Z,32.87
2019-04-06T06:42:14.379Z,31.33
2019-04-06T06:44:42.235Z,31.43
2019-04-06T06:47:10.115Z,32.57
2019-04-06T06:49:37.865Z,32.80
2019-04-06T06:52:05.751Z,32.67
2019-04-06T06:54:33.504Z,33.90
2019-04-06T06:57:01.279Z,32.33
2019-04-06T06:59:29.032Z,33.23
2019-04-06T07:01:56.848Z,30.50
2019-04-06T07:04:24.689Z,31.10
2019-04-06T07:06:52.654Z,30.87
2019-04-06T07:09:20.830Z,28.37
2019-04-06T07:11:48.655Z,29.43
2019-04-06T07:14:16.555Z,31.03
2019-04-06T07:16:44.449Z,28.20
2019-04-06T07:19:12.239Z,31.63
2019-04-06T07:21:40.157Z,32.57
2019-04-06T07:24:08.041Z,30.30
2019-04-06T07:26:35.848Z,33.17
2019-04-06T07:29:03.695Z,31.43
2019-04-06T07:31:31.808Z,30.07
2019-04-06T07:33:59.700Z,29.37
2019-04-06T07:36:27.880Z,29.57
2019-04-06T07:38:55.944Z,28.73
2019-04-06T07:41:23.854Z,28.10
2019-04-06T07:43:51.776Z,27.80
2019-04-06T07:46:19.584Z,29.10
2019-04-06T07:48:47.601Z,27.27
2019-04-06T07:51:15.398Z,29.67
2019-04-06T07:53:43.196Z,29.00
2019-04-06T07:56:11.057Z,28.67
2019-04-06T07:58:48.036Z,28.17
2019-04-06T08:01:08.462Z,27.10
2019-04-06T08:03:36.315Z,27.73
2019-04-06T08:06:04.262Z,27.80
2019-04-06T08:08:32.066Z,27.50
2019-04-06T08:10:59.917Z,26.93
2019-04-06T08:13:27.869Z,27.67
2019-04-06T08:15:55.659Z,26.17
2019-04-06T08:18:23.744Z,40.30
2019-04-06T08:20:51.747Z,48.77
2019-04-06T08:23:19.546Z,38.23
2019-04-06T08:25:47.762Z,40.33
2019-04-06T08:28:15.600Z,50.57
2019-04-06T08:30:46.359Z,35.23
2019-04-06T08:33:13.101Z,54.83
2019-04-06T08:35:40.893Z,49.43
2019-04-06T08:38:08.814Z,29.10
2019-04-06T08:40:36.720Z,25.63
2019-04-06T08:43:04.667Z,23.23
2019-04-06T08:45:32.534Z,25.93
2019-04-06T08:48:00.511Z,24.90
2019-04-06T08:50:28.366Z,27.80
2019-04-06T08:52:56.496Z,26.67
2019-04-06T08:55:24.592Z,26.03
2019-04-06T08:57:52.629Z,26.40
2019-04-06T09:00:20.364Z,23.97
2019-04-06T09:02:48.227Z,25.53
2019-04-06T09:05:16.007Z,28.90
2019-04-06T09:07:43.898Z,26.77
2019-04-06T09:10:11.627Z,24.70
2019-04-06T09:12:39.390Z,25.70
2019-04-06T09:15:07.478Z,28.00
2019-04-06T09:17:35.329Z,23.47
2019-04-06T09:20:03.206Z,22.03
2019-04-06T09:22:30.945Z,23.30
2019-04-06T09:24:58.874Z,23.90
2019-04-06T09:27:26.702Z,24.77
2019-04-06T09:29:54.689Z,23.20
2019-04-06T09:32:22.545Z,23.33
2019-04-06T09:34:50.417Z,24.57
2019-04-06T09:37:18.302Z,23.80
2019-04-06T09:39:46.156Z,23.43
2019-04-06T09:42:13.920Z,23.87
2019-04-06T09:45:03.362Z,22.60
2019-04-06T09:47:44.239Z,22.27
2019-04-06T09:50:33.692Z,22.87
2019-04-06T09:53:29.211Z,22.70
2019-04-06T09:56:18.685Z,22.03
2019-04-06T09:59:01.296Z,22.43
2019-04-06T10:01:47.954Z,22.73
2019-04-06T10:04:33.254Z,24.00
2019-04-06T10:07:19.999Z,25.23
2019-04-06T10:10:06.635Z,25.50
2019-04-06T10:12:50.187Z,24.67
2019-04-06T10:15:35.324Z,21.57
2019-04-06T10:18:21.990Z,21.47
2019-04-06T10:21:08.662Z,20.57
2019-04-06T10:23:46.163Z,19.03
2019-04-06T10:26:33.352Z,20.00
2019-04-06T10:29:22.059Z,20.20
2019-04-06T10:32:07.483Z,19.30
2019-04-06T10:35:00.454Z,20.00
2019-04-06T10:37:49.966Z,20.30
2019-04-06T10:40:31.070Z,17.90
2019-04-06T10:43:18.019Z,20.08
2019-04-06T10:45:55.617Z,19.02
2019-04-06T10:48:41.982Z,18.87
2019-04-06T10:51:22.806Z,20.10
2019-04-06T10:54:06.240Z,20.35
2019-04-06T10:57:02.461Z,18.40
2019-04-06T11:00:02.293Z,18.40
2019-04-06T11:02:51.581Z,18.40
2019-04-06T11:05:25.080Z,18.13
2019-04-06T11:08:10.272Z,18.97
2019-04-06T11:10:55.587Z,18.50
2019-04-06T11:13:42.180Z,18.03
2019-04-06T11:16:27.617Z,18.67
2019-04-06T11:19:20.157Z,18.80
2019-04-06T11:22:12.955Z,19.43
2019-04-06T11:25:02.400Z,17.97
2019-04-06T11:27:55.074Z,19.20
2019-04-06T11:30:39.137Z,18.73
2019-04-06T11:33:35.060Z,17.33
2019-04-06T11:36:34.157Z,17.90
2019-04-06T11:39:36.059Z,18.37
2019-04-06T11:42:13.540Z,17.12
2019-04-06T11:44:50.966Z,17.32
2019-04-06T11:47:43.554Z,17.43
2019-04-06T11:50:33.479Z,17.20
2019-04-06T11:53:08.131Z,17.23
2019-04-06T11:55:52.381Z,16.30
2019-04-06T11:58:39.080Z,15.67
2019-04-06T12:01:22.668Z,15.60
2019-04-06T12:04:18.423Z,16.23
2019-04-06T12:07:03.673Z,16.90
2019-04-06T12:09:42.655Z,15.60
2019-04-06T12:12:30.848Z,16.00
2019-04-06T12:15:23.334Z,15.70
2019-04-06T12:18:01.628Z,14.57
2019-04-06T12:20:44.300Z,15.30
2019-04-06T12:23:39.963Z,16.70
2019-04-06T12:26:18.063Z,15.90
2019-04-06T12:29:04.667Z,14.57
2019-04-06T12:31:47.529Z,15.60
2019-04-06T12:34:49.267Z,15.33
2019-04-06T12:37:31.851Z,15.08
2019-04-06T12:40:09.439Z,15.30
2019-04-06T12:42:50.642Z,15.10
2019-04-06T12:45:46.467Z,15.68
2019-04-06T12:48:39.311Z,15.55
2019-04-06T12:51:31.808Z,13.20
2019-04-06T12:54:17.980Z,12.90
2019-04-06T12:57:13.566Z,13.27
2019-04-06T12:59:53.934Z,14.27
2019-04-06T13:02:32.803Z,13.50
2019-04-06T13:05:17.974Z,13.17
2019-04-06T13:08:13.799Z,14.10
2019-04-06T13:10:59.337Z,12.63
2019-04-06T13:13:45.981Z,14.67
2019-04-06T13:16:33.304Z,13.50
2019-04-06T13:19:19.798Z,13.20
2019-04-06T13:22:06.642Z,12.27
2019-04-06T13:24:44.303Z,12.33
2019-04-06T13:27:30.687Z,13.27
2019-04-06T13:30:20.999Z,12.67
2019-04-06T13:33:16.914Z,15.20
2019-04-06T13:36:03.629Z,13.47
2019-04-06T13:38:56.924Z,13.50
2019-04-06T13:41:43.652Z,13.57
2019-04-06T13:44:49.272Z,12.53
2019-04-06T13:47:34.984Z,12.80
2019-04-06T13:50:24.437Z,14.23
2019-04-06T13:53:21.379Z,14.33
2019-04-06T13:56:10.850Z,15.53
2019-04-06T13:58:53.413Z,15.13
2019-04-06T14:01:49.448Z,15.43
2019-04-06T14:04:39.325Z,15.60
2019-04-06T14:07:26.075Z,15.10
2019-04-06T14:10:19.014Z,15.20
2019-04-06T14:13:11.571Z,16.40
2019-04-06T14:15:46.778Z,15.90
2019-04-06T14:18:33.553Z,15.87
2019-04-06T14:21:23.263Z,15.70
2019-04-06T14:24:02.249Z,14.67
2019-04-06T14:26:58.604Z,16.30
2019-04-06T14:30:03.526Z,15.43
2019-04-06T14:33:08.577Z,15.43
2019-04-06T14:35:47.722Z,15.87
2019-04-06T14:38:32.523Z,15.40
2019-04-06T14:41:12.375Z,15.35
2019-04-06T14:43:55.641Z,16.03
2019-04-06T14:46:51.960Z,15.97
2019-04-06T14:49:34.604Z,15.63
2019-04-06T14:52:20.711Z,16.70
2019-04-06T14:55:03.506Z,15.57
2019-04-06T14:57:59.443Z,16.03
2019-04-06T15:00:44.728Z,16.15
2019-04-06T15:03:30.254Z,16.62
2019-04-06T15:06:10.065Z,16.48
2019-04-06T15:08:55.673Z,17.27
2019-04-06T15:11:45.212Z,18.07
2019-04-06T15:14:27.645Z,17.03
2019-04-06T15:17:32.741Z,16.40
2019-04-06T15:20:19.426Z,17.63
2019-04-06T15:23:04.891Z,17.67
2019-04-06T15:25:57.953Z,19.03
2019-04-06T15:28:53.587Z,18.27
2019-04-06T15:31:55.552Z,18.70
2019-04-06T15:37:25.377Z,18.35
2019-04-06T15:40:10.465Z,21.00
2019-04-06T15:43:03.336Z,20.43
2019-04-06T15:45:50.226Z,20.40
2019-04-06T15:48:41.196Z,20.40
2019-04-06T15:51:27.116Z,19.73
2019-04-06T15:54:23.520Z,19.27
2019-04-06T15:56:56.522Z,19.70
2019-04-06T15:59:52.165Z,19.00
2019-04-06T16:02:38.849Z,20.63
2019-04-06T16:05:19.206Z,20.70
2019-04-06T16:08:05.913Z,20.33
2019-04-06T16:10:52.527Z,20.57
2019-04-06T16:13:45.060Z,21.57
2019-04-06T16:16:31.887Z,21.45
2019-04-06T16:19:09.565Z,21.97
2019-04-06T16:22:05.599Z,21.52
2019-04-06T16:24:58.512Z,21.40
2019-04-06T16:27:51.584Z,22.20
2019-04-06T16:30:37.021Z,22.80
2019-04-06T16:33:12.798Z,22.90
2019-04-06T16:35:52.147Z,24.87
2019-04-06T16:38:37.765Z,23.97
2019-04-06T16:41:23.324Z,24.30
2019-04-06T16:44:04.878Z,23.67
2019-04-06T16:46:50.564Z,24.37
2019-04-06T16:49:31.354Z,23.40
2019-04-06T16:52:08.777Z,23.63
2019-04-06T16:55:14.211Z,24.17
2019-04-06T16:58:19.131Z,24.23
2019-04-06T17:00:56.819Z,24.50
2019-04-06T17:03:43.498Z,25.30
2019-04-06T17:06:20.400Z,24.50
2019-04-06T17:09:05.979Z,24.57
2019-04-06T17:11:53.588Z,23.33
2019-04-06T17:14:39.364Z,23.70
2019-04-06T17:17:32.020Z,23.00
2019-04-06T17:20:34.145Z,23.93
2019-04-06T17:23:07.932Z,23.65
2019-04-06T17:25:48.812Z,24.57
2019-04-06T17:28:47.968Z,23.17
2019-04-06T17:31:25.381Z,22.37
2019-04-06T17:34:01.569Z,23.67
2019-04-06T17:36:48.232Z,23.23
2019-04-06T17:39:44.531Z,23.30
2019-04-06T17:42:43.818Z,23.60
2019-04-06T17:45:36.666Z,23.27
2019-04-06T17:48:26.457Z,21.47
2019-04-06T17:51:21.984Z,23.27
2019-04-06T17:54:11.839Z,23.10
2019-04-06T17:56:57.434Z,22.00
2019-04-06T17:59:53.009Z,22.17
2019-04-06T18:02:47.832Z,21.67
2019-04-06T18:05:26.569Z,21.97
2019-04-06T18:08:19.328Z,20.67
2019-04-06T18:11:06.266Z,21.80
2019-04-06T18:13:48.288Z,21.60
2019-04-06T18:16:16.341Z,21.55
2019-04-06T18:18:44.150Z,21.42
2019-04-06T18:21:11.971Z,22.00
2019-04-06T18:23:40.321Z,21.57
2019-04-06T18:26:08.327Z,20.93
2019-04-06T18:28:36.221Z,22.67
2019-04-06T18:31:10.383Z,21.77
2019-04-06T18:33:38.106Z,21.70
2019-04-06T18:36:06.111Z,21.40
2019-04-06T18:38:37.620Z,22.13
2019-04-06T18:41:05.836Z,22.40
2019-04-06T18:43:33.863Z,22.83
2019-04-06T18:46:01.794Z,22.30
2019-04-06T18:48:29.919Z,22.30
2019-04-06T18:50:57.729Z,22.10
2019-04-06T18:53:25.489Z,19.83
2019-04-06T18:55:53.783Z,21.90
2019-04-06T18:58:22.032Z,21.13
2019-04-06T19:00:50.717Z,21.73
2019-04-06T19:03:18.840Z,21.53
2019-04-06T19:05:46.715Z,21.33
2019-04-06T19:08:14.641Z,21.00
2019-04-06T19:10:42.421Z,23.13
2019-04-06T19:13:10.319Z,22.97
2019-04-06T19:15:38.102Z,23.20
2019-04-06T19:18:05.875Z,22.70
2019-04-06T19:20:33.884Z,23.07
2019-04-06T19:23:01.649Z,22.13
2019-04-06T19:25:29.985Z,23.00
2019-04-06T19:27:58.059Z,22.83
2019-04-06T19:30:27.113Z,23.20
2019-04-06T19:32:55.283Z,23.23
2019-04-06T19:35:23.587Z,22.33
2019-04-06T19:37:51.976Z,20.90
2019-04-06T19:40:20.038Z,22.33
2019-04-06T19:42:47.817Z,21.60
2019-04-06T19:45:15.838Z,23.37
2019-04-06T19:47:43.695Z,22.83
2019-04-06T19:50:11.731Z,23.47
2019-04-06T19:52:39.704Z,22.87
2019-04-06T19:55:07.665Z,21.90
2019-04-06T19:57:36.167Z,22.27
2019-04-06T20:00:04.288Z,22.37
2019-04-06T20:02:32.481Z,22.70
2019-04-06T20:05:00.214Z,23.73
2019-04-06T20:07:28.030Z,22.13
2019-04-06T20:09:56.042Z,21.83
2019-04-06T20:12:23.842Z,24.37
2019-04-06T20:14:51.727Z,22.63
2019-04-06T20:17:19.814Z,22.47
2019-04-06T20:19:47.793Z,22.70
2019-04-06T20:22:15.663Z,22.17
2019-04-06T20:24:43.464Z,22.13
2019-04-06T20:27:11.595Z,23.57
2019-04-06T20:29:40.748Z,23.70
2019-04-06T20:32:08.824Z,23.43
2019-04-06T20:34:36.569Z,22.83
2019-04-06T20:37:04.607Z,22.23
2019-04-06T20:39:33.500Z,22.43
2019-04-06T20:42:01.955Z,22.30
2019-04-06T20:44:30.466Z,21.87
2019-04-06T20:46:58.445Z,22.20
2019-04-06T20:49:26.357Z,22.80
2019-04-06T20:51:54.380Z,22.77
2019-04-06T20:54:22.256Z,22.27
2019-04-06T20:56:56.115Z,23.27
2019-04-06T20:59:19.366Z,22.13
2019-04-06T21:01:47.107Z,22.87
2019-04-06T21:04:15.622Z,22.80
2019-04-06T21:06:43.741Z,22.70
2019-04-06T21:09:14.016Z,22.00
2019-04-06T21:11:41.992Z,22.30
2019-04-06T21:14:10.087Z,22.03
2019-04-06T21:16:38.193Z,22.17
2019-04-06T21:19:06.002Z,21.87
2019-04-06T21:21:33.819Z,22.37
2019-04-06T21:24:01.727Z,22.63
2019-04-06T21:26:29.443Z,22.47
2019-04-06T21:28:57.583Z,24.10
2019-04-06T21:31:25.666Z,23.00
2019-04-06T21:33:53.568Z,23.17
2019-04-06T21:36:21.805Z,22.87
2019-04-06T21:38:50.407Z,23.27
2019-04-06T21:41:18.528Z,23.60
2019-04-06T21:43:46.263Z,24.77
2019-04-06T21:46:14.158Z,24.37
2019-04-06T21:48:42.479Z,24.47
2019-04-06T21:51:11.335Z,24.87
2019-04-06T21:53:39.309Z,24.10
2019-04-06T21:56:08.259Z,24.00
2019-04-06T21:58:36.281Z,27.43
2019-04-06T22:01:04.128Z,25.37
2019-04-06T22:03:32.614Z,24.47
2019-04-06T22:06:00.580Z,23.77
2019-04-06T22:08:28.516Z,23.93
2019-04-06T22:10:56.445Z,23.93
2019-04-06T22:13:24.955Z,24.20
2019-04-06T22:15:52.804Z,23.50
2019-04-06T22:18:20.718Z,23.53
2019-04-06T22:20:49.083Z,23.20
2019-04-06T22:23:17.589Z,24.83
2019-04-06T22:25:45.942Z,24.17
2019-04-06T22:28:14.198Z,24.17
2019-04-06T22:30:43.173Z,24.03
2019-04-06T22:33:11.791Z,26.47
2019-04-06T22:35:39.801Z,25.17
2019-04-06T22:38:08.101Z,25.03
2019-04-06T22:40:36.065Z,23.33
2019-04-06T22:43:04.052Z,22.73
2019-04-06T22:45:33.578Z,23.20
2019-04-06T22:48:02.338Z,24.03
2019-04-06T22:50:30.426Z,24.00
2019-04-06T22:52:58.371Z,23.60
2019-04-06T22:55:27.003Z,23.67
2019-04-06T22:57:54.863Z,22.87
2019-04-06T23:00:30.513Z,24.50
2019-04-06T23:03:20.642Z,25.37
2019-04-06T23:05:52.737Z,24.53
2019-04-06T23:10:47.778Z,21.85
2019-04-06T23:13:15.565Z,23.70
2019-04-06T23:15:43.917Z,24.75
2019-04-06T23:18:11.585Z,23.30
2019-04-06T23:20:39.145Z,25.35
2019-04-06T23:23:06.729Z,26.40
2019-04-06T23:25:34.878Z,23.77
2019-04-06T23:28:02.554Z,23.75
2019-04-06T23:30:30.152Z,23.42
2019-04-06T23:32:58.218Z,25.37
2019-04-06T23:35:26.469Z,22.17
2019-04-06T23:37:54.338Z,23.13
2019-04-06T23:40:22.448Z,24.30
2019-04-06T23:42:50.609Z,25.53
2019-04-06T23:45:18.536Z,24.60
2019-04-06T23:47:46.808Z,24.00
2019-04-06T23:50:14.807Z,23.77
2019-04-06T23:52:43.383Z,23.83
2019-04-06T23:55:11.937Z,23.33
2019-04-06T23:57:40.174Z,22.70
